createdAt,value
2018-06-03T17:47:47.974Z,26.80
2018-06-03T17:50:17.205Z,26.50
2018-06-03T17:52:46.579Z,26.30
2018-06-03T17:55:17.713Z,26.20
2018-06-03T17:57:46.969Z,26.20
2018-06-03T18:00:16.097Z,25.90
2018-06-03T18:02:45.436Z,25.80
2018-06-03T18:05:14.548Z,25.70
2018-06-03T18:07:43.790Z,25.60
2018-06-03T18:10:13.286Z,25.60
2018-06-03T18:12:43.077Z,25.80
2018-06-03T18:15:14.224Z,25.80
2018-06-03T18:17:43.723Z,25.60
2018-06-03T18:20:13.233Z,25.80
2018-06-03T18:22:47.108Z,25.80
2018-06-03T18:25:17.973Z,25.70
2018-06-03T18:27:47.248Z,25.70
2018-06-03T18:30:16.475Z,25.60
2018-06-03T18:32:45.718Z,25.60
2018-06-03T18:35:14.909Z,25.50
2018-06-03T18:37:44.168Z,25.30
2018-06-03T18:40:13.511Z,25.20
2018-06-03T18:42:44.320Z,25.20
2018-06-03T18:45:13.523Z,25.10
2018-06-03T18:47:42.608Z,25.10
2018-06-03T18:50:11.683Z,25.10
2018-06-03T18:52:41.029Z,25.00
2018-06-03T18:55:10.454Z,24.90
2018-06-03T18:57:39.704Z,24.80
2018-06-03T19:00:10.365Z,24.70
2018-06-03T19:02:39.494Z,24.60
2018-06-03T19:05:08.920Z,24.40
2018-06-03T19:07:45.788Z,24.30
2018-06-03T19:10:15.234Z,24.10
2018-06-03T19:12:44.771Z,24.00
2018-06-03T19:15:14.160Z,23.80
2018-06-03T19:17:48.965Z,23.80
2018-06-03T19:20:18.331Z,23.70
2018-06-03T19:22:47.669Z,23.60
2018-06-03T19:25:16.864Z,23.60
2018-06-03T19:27:46.129Z,23.40
2018-06-03T19:30:15.381Z,23.30
2018-06-03T19:32:44.457Z,23.20
2018-06-03T19:35:13.721Z,23.20
2018-06-03T19:37:42.967Z,23.20
2018-06-03T19:40:12.397Z,23.00
2018-06-03T19:42:41.799Z,23.00
2018-06-03T19:45:11.464Z,22.90
2018-06-03T19:47:40.911Z,22.90
2018-06-03T19:50:10.952Z,22.80
2018-06-03T19:52:40.089Z,22.60
2018-06-03T19:55:09.239Z,22.50
2018-06-03T19:57:38.514Z,22.50
2018-06-03T20:00:07.710Z,22.40
2018-06-03T20:02:36.841Z,22.40
2018-06-03T20:05:06.000Z,22.30
2018-06-03T20:07:35.358Z,22.30
2018-06-03T20:10:04.719Z,22.20
2018-06-03T20:12:33.958Z,22.10
2018-06-03T20:15:03.292Z,22.00
2018-06-03T20:17:33.165Z,22.00
2018-06-03T20:22:31.494Z,21.80
2018-06-03T20:25:00.735Z,21.80
2018-06-03T20:27:31.177Z,21.90
2018-06-03T20:30:00.319Z,21.90
2018-06-03T20:32:29.453Z,21.90
2018-06-03T20:34:58.988Z,21.80
2018-06-03T20:37:28.118Z,21.70
2018-06-03T20:39:57.229Z,21.60
2018-06-03T20:42:26.645Z,21.50
2018-06-03T20:44:55.907Z,21.40
2018-06-03T20:47:25.188Z,21.40
2018-06-03T20:49:54.326Z,21.40
2018-06-03T20:52:23.425Z,21.40
2018-06-03T20:54:53.419Z,21.40
2018-06-03T20:57:22.667Z,21.40
2018-06-03T20:59:51.946Z,21.30
2018-06-03T21:02:21.217Z,21.30
2018-06-03T21:04:50.478Z,21.30
2018-06-03T21:07:19.725Z,21.30
2018-06-03T21:09:48.985Z,21.40
2018-06-03T21:12:18.218Z,21.30
2018-06-03T21:14:47.343Z,21.30
2018-06-03T21:17:16.479Z,21.30
2018-06-03T21:19:45.613Z,21.30
2018-06-03T21:22:14.784Z,21.30
2018-06-03T21:24:43.980Z,21.20
2018-06-03T21:27:13.414Z,21.20
2018-06-03T21:29:42.588Z,21.10
2018-06-03T21:32:12.289Z,21.10
2018-06-03T21:34:41.486Z,21.00
2018-06-03T21:37:10.793Z,21.00
2018-06-03T21:39:39.914Z,21.00
2018-06-03T21:42:09.118Z,20.90
2018-06-03T21:44:38.293Z,20.90
2018-06-03T21:47:07.710Z,20.80
2018-06-03T21:49:37.057Z,20.80
2018-06-03T21:52:06.381Z,20.70
2018-06-03T21:54:35.790Z,20.60
2018-06-03T21:57:04.905Z,20.50
2018-06-03T21:59:34.046Z,20.50
2018-06-03T22:02:03.785Z,20.50
2018-06-03T22:04:33.245Z,20.50
2018-06-03T22:07:02.527Z,20.50
2018-06-03T22:09:31.712Z,20.50
2018-06-03T22:12:00.855Z,20.50
2018-06-03T22:14:30.047Z,20.40
2018-06-03T22:16:59.452Z,20.30
2018-06-03T22:19:28.710Z,20.30
2018-06-03T22:21:57.871Z,20.20
2018-06-03T22:24:26.962Z,20.10
2018-06-03T22:26:56.210Z,20.00
2018-06-03T22:29:25.504Z,19.90
2018-06-03T22:31:54.908Z,19.80
2018-06-03T22:34:24.306Z,19.80
2018-06-03T22:36:53.453Z,19.70
2018-06-03T22:39:22.906Z,19.60
2018-06-03T22:41:52.097Z,19.50
2018-06-03T22:44:21.340Z,19.50
2018-06-03T22:46:50.456Z,19.40
2018-06-03T22:49:19.604Z,19.40
2018-06-03T22:51:48.901Z,19.40
2018-06-03T22:57:09.497Z,19.30
2018-06-03T22:59:38.926Z,19.30
2018-06-03T23:02:08.236Z,19.30
2018-06-03T23:07:06.202Z,19.10
2018-06-03T23:09:35.531Z,19.10
2018-06-03T23:12:05.554Z,19.00
2018-06-03T23:14:36.417Z,19.00
2018-06-03T23:17:05.722Z,18.90
2018-06-03T23:19:35.272Z,18.90
2018-06-03T23:22:04.360Z,18.80
2018-06-03T23:24:35.075Z,18.80
2018-06-03T23:27:04.203Z,18.70
2018-06-03T23:29:33.297Z,18.60
2018-06-03T23:32:02.420Z,18.60
2018-06-03T23:34:31.561Z,18.70
2018-06-03T23:37:00.710Z,18.60
2018-06-03T23:39:29.881Z,18.60
2018-06-03T23:41:58.979Z,18.50
2018-06-03T23:44:28.327Z,18.50
2018-06-03T23:46:57.543Z,18.30
2018-06-03T23:49:26.908Z,18.30
2018-06-03T23:51:56.063Z,18.30
2018-06-03T23:54:25.226Z,18.20
2018-06-03T23:56:54.322Z,18.20
